LIBDLIML

Guest
Details From LIBD - Bari Palese Macchie
To LIML - Milano Linate
Flight Number -
Tags generated
Created
Modified
Stats Distance 420 nm / 777 km
Max Altitude 34,000 ft / 10,363 m
Waypoints 10
Social Downloads 5
Likes 0
Share VATSIM

Download

Looking for another format? Having issues loading an existing format? Contact us
Advertisement - Login to hide

Notes

Basic altitude profile: - Ascent Rate: 2500ft/min - Ascent Speed: 250kts - Cruise Altitude: 35000ft - Cruise Speed: 420kts - Descent Rate: 1500ft/min - Descent Speed: 250kts Options: - Use NATs: yes - Use PACOTS: yes - Use low airways: yes - Use high airways: yes

Route

LIBD AME M872 PES UM872 URBAN UW95 LUTOR LIML

ID Type Via Altitude Latitude Longitude Leg Dist Tot Dist Heading (true) Name
O LIBD APT - 0 ft / 0 m 41.13787˚ 16.75832˚ - 0 nm - Bari Palese Macchie
AME NDB - 16,700 ft / 5,090 m 41.50000˚ 15.83778˚ 46 nm 46 nm 298° / 297° AMENDOLA NDB
PES VOR M872 (AWY-LO) 18,500 ft / 5,639 m 42.43611˚ 14.18444˚ 92 nm 139 nm 308° / 307° PESCARA VOR-DME
NORKI FIX UM872 (AWY-HI) 34,000 ft / 10,363 m 43.07972˚ 13.32861˚ 54 nm 193 nm 316° / 315° -
LEONN FIX UM872 (AWY-HI) 34,000 ft / 10,363 m 43.29500˚ 13.03667˚ 18 nm 211 nm 315° / 315° -
GUBIN FIX UM872 (AWY-HI) 34,000 ft / 10,363 m 43.48694˚ 12.77417˚ 16 nm 228 nm 315° / 315° -
URBAN FIX UM872 (AWY-HI) 34,000 ft / 10,363 m 43.79389˚ 12.34833˚ 26 nm 254 nm 315° / 315° -
PELEG FIX UW95 (AWY-HI) 26,400 ft / 8,047 m 44.22778˚ 11.73528˚ 37 nm 291 nm 315° / 314° -
LUTOR FIX UW95 (AWY-HI) 22,600 ft / 6,888 m 44.48806˚ 11.36083˚ 22 nm 313 nm 314° / 314° -
O LIML APT - 0 ft / 0 m 45.45030˚ 9.27280˚ 105 nm 419 nm 304° / 302° Milano Linate

Altitude Profile

Advertisement - Login to hide

Weather


0- 5 10 15 20 25 30 35+ Temperature / ° C

Clouds and Precipitation
Forecast for 2017-12-13 18:00 UTC. Updated 2 hours ago

Ground ~20,000 ft ~40,000 ft Winds

LIBD

Details ICAO LIBD (BRI)
Name Bari Palese Macchie
Region Italy
Timezone Europe/Rome (UTC+1.0)
Stats Elevation 177 ft / 54 m (AMSL)
Location 41.137865° 16.758318°
Runways 1
Magnetic Variation 3.737° E

METAR

LIBD 131850Z 24007KT 9999 SCT045 11/08 Q1017

Decode

TAF

TAF LIBD 131700Z 1318/1418 25012KT 9999 SCT030 TEMPO 1318/1320 RA= TAF LIBP 131700Z 1318/1418 22008KT 9999 SCT020 BECMG 1402/1405 22015G25KT

Decode

Departure Runways

ID Width Length Bearing (true) Bearing (mag) Surface Threshold Offset Overrun Length
07 148 ft / 45 m 9,262 ft / 2,823 m 69.39° 65.65° Asphalt 1,257 ft / 383 m 0 ft / 0 m
25 148 ft / 45 m 9,262 ft / 2,823 m 249.42° 245.68° Asphalt 0 ft / 0 m 194 ft / 59 m

LIML

Details ICAO LIML (LIN)
Name Milano Linate
Region Italy
Timezone Europe/Rome (UTC+1.0)
Stats Elevation 353 ft / 108 m (AMSL)
Location 45.450302° 9.272801°
Runways 2
Magnetic Variation 2.500° E

METAR

LIML 131850Z VRB02KT 9999 SCT050 02/01 Q1015 NOSIG

Decode

TAF

TAF LIML 131700Z 1318/1418 VRB05KT 6000 NSC BECMG 1319/1321 3000 BR TEMPO 1322/1408 0800 BCFG BKN012 BECMG 1409/1412 6000

Decode

Destination Runways

ID Width Length Bearing (true) Bearing (mag) Surface Threshold Offset Overrun Length
17 72 ft / 22 m 1,975 ft / 602 m 175.64° 173.14° Asphalt 200 ft / 61 m 0 ft / 0 m
18 197 ft / 60 m 8,017 ft / 2,443 m 175.67° 173.17° Asphalt 0 ft / 0 m 190 ft / 58 m
35 72 ft / 22 m 1,975 ft / 602 m 355.64° 353.14° Asphalt 200 ft / 61 m 0 ft / 0 m
36 197 ft / 60 m 8,017 ft / 2,443 m 355.68° 353.18° Asphalt 0 ft / 0 m 980 ft / 299 m

Approach Navaids

Runway Type Ident Frequency Range Bearing (true) Bearing (mag) Slope Elevation
36 Localiser ILNT 109.55 MHz 18 nm / 33 km 355.68° 353.18° - 353 ft / 108 m (AMSL)
36 Glidescope ILNT 109.55 MHz 10 nm / 19 km 355.68° 353.18° 3.00° 352 ft / 107 m (AMSL)
36 DME ILNT 109.55 MHz 25 nm / 46 km - - - 352 ft / 107 m (AMSL)

Popular Alternatives